sensor_id;sensor_type;location;lat;lon;timestamp;pressure;altitude;pressure_sealevel;temperature
57468;BMP280;43311;51.196;7.518;2023-09-07T00:00:14;97498.13;;;17.70
57468;BMP280;43311;51.196;7.518;2023-09-07T00:02:39;97499.84;;;17.64
57468;BMP280;43311;51.196;7.518;2023-09-07T00:05:08;97496.38;;;17.55
57468;BMP280;43311;51.196;7.518;2023-09-07T00:07:35;97497.53;;;17.54
57468;BMP280;43311;51.196;7.518;2023-09-07T00:10:00;97497.38;;;17.48
57468;BMP280;43311;51.196;7.518;2023-09-07T00:12:26;97495.56;;;17.45
57468;BMP280;43311;51.196;7.518;2023-09-07T00:14:55;97482.66;;;17.35
57468;BMP280;43311;51.196;7.518;2023-09-07T00:17:21;97485.00;;;17.33
57468;BMP280;43311;51.196;7.518;2023-09-07T00:19:47;97482.97;;;17.24
57468;BMP280;43311;51.196;7.518;2023-09-07T00:22:14;97501.75;;;17.30
57468;BMP280;43311;51.196;7.518;2023-09-07T00:24:40;97492.06;;;17.23
57468;BMP280;43311;51.196;7.518;2023-09-07T00:27:06;97487.03;;;17.16
57468;BMP280;43311;51.196;7.518;2023-09-07T00:29:35;97485.31;;;17.10
57468;BMP280;43311;51.196;7.518;2023-09-07T00:32:01;97479.72;;;17.08
57468;BMP280;43311;51.196;7.518;2023-09-07T00:34:27;97493.38;;;17.07
57468;BMP280;43311;51.196;7.518;2023-09-07T00:36:52;97492.22;;;17.08
57468;BMP280;43311;51.196;7.518;2023-09-07T00:39:18;97488.06;;;17.07
57468;BMP280;43311;51.196;7.518;2023-09-07T00:41:43;97482.38;;;16.96
57468;BMP280;43311;51.196;7.518;2023-09-07T00:44:08;97488.94;;;17.04
57468;BMP280;43311;51.196;7.518;2023-09-07T00:46:34;97493.91;;;17.02
57468;BMP280;43311;51.196;7.518;2023-09-07T00:49:00;97486.84;;;16.99
57468;BMP280;43311;51.196;7.518;2023-09-07T00:51:27;97479.81;;;16.92
57468;BMP280;43311;51.196;7.518;2023-09-07T00:53:53;97481.75;;;16.92
57468;BMP280;43311;51.196;7.518;2023-09-07T00:56:19;97488.63;;;16.89
57468;BMP280;43311;51.196;7.518;2023-09-07T00:58:44;97488.75;;;16.86
57468;BMP280;43311;51.196;7.518;2023-09-07T01:01:10;97484.59;;;16.85
57468;BMP280;43311;51.196;7.518;2023-09-07T01:03:36;97477.53;;;16.82
57468;BMP280;43311;51.196;7.518;2023-09-07T01:06:07;97493.63;;;16.75
57468;BMP280;43311;51.196;7.518;2023-09-07T01:08:49;97483.22;;;16.68
57468;BMP280;43311;51.196;7.518;2023-09-07T01:11:18;97487.69;;;16.71
57468;BMP280;43311;51.196;7.518;2023-09-07T01:13:45;97476.97;;;16.62
57468;BMP280;43311;51.196;7.518;2023-09-07T01:16:12;97484.81;;;16.65
57468;BMP280;43311;51.196;7.518;2023-09-07T01:18:39;97483.03;;;16.62
57468;BMP280;43311;51.196;7.518;2023-09-07T01:21:08;97460.56;;;16.42
57468;BMP280;43311;51.196;7.518;2023-09-07T01:23:38;97479.97;;;16.51
57468;BMP280;43311;51.196;7.518;2023-09-07T01:26:06;97471.78;;;16.46
57468;BMP280;43311;51.196;7.518;2023-09-07T01:28:32;97475.41;;;16.52
57468;BMP280;43311;51.196;7.518;2023-09-07T01:30:57;97460.22;;;16.40
57468;BMP280;43311;51.196;7.518;2023-09-07T01:33:23;97474.97;;;16.41
57468;BMP280;43311;51.196;7.518;2023-09-07T01:35:50;97470.63;;;16.35
57468;BMP280;43311;51.196;7.518;2023-09-07T01:38:16;97467.53;;;16.36
57468;BMP280;43311;51.196;7.518;2023-09-07T01:40:41;97462.78;;;16.31
57468;BMP280;43311;51.196;7.518;2023-09-07T01:43:06;97457.78;;;16.33
57468;BMP280;43311;51.196;7.518;2023-09-07T01:45:32;97461.91;;;16.34
57468;BMP280;43311;51.196;7.518;2023-09-07T01:47:59;97462.34;;;16.33
57468;BMP280;43311;51.196;7.518;2023-09-07T01:50:24;97474.53;;;16.30
57468;BMP280;43311;51.196;7.518;2023-09-07T01:52:51;97451.50;;;16.15
57468;BMP280;43311;51.196;7.518;2023-09-07T01:55:16;97465.91;;;16.26
57468;BMP280;43311;51.196;7.518;2023-09-07T01:57:42;97464.53;;;16.22
57468;BMP280;43311;51.196;7.518;2023-09-07T02:00:11;97462.31;;;16.20
57468;BMP280;43311;51.196;7.518;2023-09-07T02:02:40;97462.06;;;16.15
57468;BMP280;43311;51.196;7.518;2023-09-07T02:05:06;97465.06;;;16.17
57468;BMP280;43311;51.196;7.518;2023-09-07T02:07:31;97458.38;;;16.12
57468;BMP280;43311;51.196;7.518;2023-09-07T02:09:57;97467.03;;;16.13
57468;BMP280;43311;51.196;7.518;2023-09-07T02:12:23;97456.75;;;16.02
57468;BMP280;43311;51.196;7.518;2023-09-07T02:14:48;97463.41;;;16.07
57468;BMP280;43311;51.196;7.518;2023-09-07T02:17:14;97466.50;;;16.05
57468;BMP280;43311;51.196;7.518;2023-09-07T02:19:44;97463.22;;;16.01
57468;BMP280;43311;51.196;7.518;2023-09-07T02:22:10;97465.53;;;15.99
57468;BMP280;43311;51.196;7.518;2023-09-07T02:24:36;97470.19;;;15.95
57468;BMP280;43311;51.196;7.518;2023-09-07T02:27:01;97470.69;;;15.90
57468;BMP280;43311;51.196;7.518;2023-09-07T02:29:27;97459.56;;;15.83
57468;BMP280;43311;51.196;7.518;2023-09-07T02:31:52;97461.47;;;15.82
57468;BMP280;43311;51.196;7.518;2023-09-07T02:34:18;97450.31;;;15.75
57468;BMP280;43311;51.196;7.518;2023-09-07T02:36:44;97461.97;;;15.77
57468;BMP280;43311;51.196;7.518;2023-09-07T02:39:10;97465.56;;;15.71
57468;BMP280;43311;51.196;7.518;2023-09-07T02:41:37;97452.09;;;15.66
57468;BMP280;43311;51.196;7.518;2023-09-07T02:44:04;97464.50;;;15.69
57468;BMP280;43311;51.196;7.518;2023-09-07T02:46:30;97464.91;;;15.67
57468;BMP280;43311;51.196;7.518;2023-09-07T02:48:58;97461.19;;;15.65
57468;BMP280;43311;51.196;7.518;2023-09-07T02:51:25;97441.13;;;15.51
57468;BMP280;43311;51.196;7.518;2023-09-07T02:53:53;97462.38;;;15.64
57468;BMP280;43311;51.196;7.518;2023-09-07T02:56:18;97458.22;;;15.63
57468;BMP280;43311;51.196;7.518;2023-09-07T02:58:44;97459.03;;;15.60
57468;BMP280;43311;51.196;7.518;2023-09-07T03:01:11;97455.34;;;15.57
57468;BMP280;43311;51.196;7.518;2023-09-07T03:03:38;97459.13;;;15.56
57468;BMP280;43311;51.196;7.518;2023-09-07T03:06:11;97460.41;;;15.52
57468;BMP280;43311;51.196;7.518;2023-09-07T03:08:40;97463.13;;;15.48
57468;BMP280;43311;51.196;7.518;2023-09-07T03:11:06;97459.34;;;15.49
57468;BMP280;43311;51.196;7.518;2023-09-07T03:13:32;97455.63;;;15.47
57468;BMP280;43311;51.196;7.518;2023-09-07T03:15:58;97454.94;;;15.43
57468;BMP280;43311;51.196;7.518;2023-09-07T03:18:24;97452.81;;;15.38
57468;BMP280;43311;51.196;7.518;2023-09-07T03:20:50;97436.50;;;15.27
57468;BMP280;43311;51.196;7.518;2023-09-07T03:23:16;97458.88;;;15.38
57468;BMP280;43311;51.196;7.518;2023-09-07T03:25:42;97453.00;;;15.31
57468;BMP280;43311;51.196;7.518;2023-09-07T03:28:08;97457.47;;;15.34
57468;BMP280;43311;51.196;7.518;2023-09-07T03:30:35;97447.16;;;15.23
57468;BMP280;43311;51.196;7.518;2023-09-07T03:33:02;97439.84;;;15.11
57468;BMP280;43311;51.196;7.518;2023-09-07T03:35:28;97459.63;;;15.23
57468;BMP280;43311;51.196;7.518;2023-09-07T03:37:55;97451.09;;;15.15
57468;BMP280;43311;51.196;7.518;2023-09-07T03:40:20;97452.00;;;15.09
57468;BMP280;43311;51.196;7.518;2023-09-07T03:42:46;97456.63;;;15.05
57468;BMP280;43311;51.196;7.518;2023-09-07T03:45:12;97455.91;;;15.04
57468;BMP280;43311;51.196;7.518;2023-09-07T03:47:38;97435.09;;;14.91
57468;BMP280;43311;51.196;7.518;2023-09-07T03:50:04;97459.63;;;15.07
57468;BMP280;43311;51.196;7.518;2023-09-07T03:52:31;97451.69;;;15.07
57468;BMP280;43311;51.196;7.518;2023-09-07T03:54:59;97445.22;;;15.08
57468;BMP280;43311;51.196;7.518;2023-09-07T03:57:26;97453.16;;;15.08
57468;BMP280;43311;51.196;7.518;2023-09-07T03:59:52;97434.50;;;14.99
57468;BMP280;43311;51.196;7.518;2023-09-07T04:02:17;97440.13;;;15.01
57468;BMP280;43311;51.196;7.518;2023-09-07T04:04:47;97421.06;;;14.94
57468;BMP280;43311;51.196;7.518;2023-09-07T04:07:12;97454.97;;;15.11
57468;BMP280;43311;51.196;7.518;2023-09-07T04:09:38;97446.47;;;15.19
57468;BMP280;43311;51.196;7.518;2023-09-07T04:12:04;97419.91;;;15.10
57468;BMP280;43311;51.196;7.518;2023-09-07T04:14:29;97451.03;;;15.35
57468;BMP280;43311;51.196;7.518;2023-09-07T04:16:55;97453.81;;;15.44
57468;BMP280;43311;51.196;7.518;2023-09-07T04:19:21;97451.50;;;15.46
57468;BMP280;43311;51.196;7.518;2023-09-07T04:21:46;97454.78;;;15.50
57468;BMP280;43311;51.196;7.518;2023-09-07T04:24:11;97436.88;;;15.41
57468;BMP280;43311;51.196;7.518;2023-09-07T04:26:37;97452.31;;;15.43
57468;BMP280;43311;51.196;7.518;2023-09-07T04:29:03;97452.50;;;15.36
57468;BMP280;43311;51.196;7.518;2023-09-07T04:31:29;97435.16;;;15.35
57468;BMP280;43311;51.196;7.518;2023-09-07T04:33:54;97451.16;;;15.44
57468;BMP280;43311;51.196;7.518;2023-09-07T04:36:20;97459.44;;;15.46
57468;BMP280;43311;51.196;7.518;2023-09-07T04:38:46;97446.50;;;15.48
57468;BMP280;43311;51.196;7.518;2023-09-07T04:41:13;97434.78;;;15.49
57468;BMP280;43311;51.196;7.518;2023-09-07T04:43:40;97451.41;;;15.77
57468;BMP280;43311;51.196;7.518;2023-09-07T04:46:09;97453.22;;;15.80
57468;BMP280;43311;51.196;7.518;2023-09-07T04:48:34;97456.84;;;15.86
57468;BMP280;43311;51.196;7.518;2023-09-07T04:51:05;97455.34;;;15.85
57468;BMP280;43311;51.196;7.518;2023-09-07T04:53:32;97453.44;;;15.86
57468;BMP280;43311;51.196;7.518;2023-09-07T04:55:58;97455.53;;;15.78
57468;BMP280;43311;51.196;7.518;2023-09-07T04:58:25;97455.47;;;15.94
57468;BMP280;43311;51.196;7.518;2023-09-07T05:00:50;97442.84;;;15.86
57468;BMP280;43311;51.196;7.518;2023-09-07T05:03:16;97442.25;;;15.94
57468;BMP280;43311;51.196;7.518;2023-09-07T05:05:42;97463.31;;;16.10
57468;BMP280;43311;51.196;7.518;2023-09-07T05:08:07;97445.84;;;16.00
57468;BMP280;43311;51.196;7.518;2023-09-07T05:10:33;97462.63;;;16.22
57468;BMP280;43311;51.196;7.518;2023-09-07T05:12:59;97456.81;;;16.27
57468;BMP280;43311;51.196;7.518;2023-09-07T05:15:25;97459.28;;;16.34
57468;BMP280;43311;51.196;7.518;2023-09-07T05:17:52;97469.88;;;16.46
57468;BMP280;43311;51.196;7.518;2023-09-07T05:20:17;97470.81;;;16.52
57468;BMP280;43311;51.196;7.518;2023-09-07T05:22:43;97469.56;;;16.69
57468;BMP280;43311;51.196;7.518;2023-09-07T05:25:09;97462.03;;;16.68
57468;BMP280;43311;51.196;7.518;2023-09-07T05:27:35;97463.53;;;16.69
57468;BMP280;43311;51.196;7.518;2023-09-07T05:30:02;97458.75;;;16.76
57468;BMP280;43311;51.196;7.518;2023-09-07T05:32:27;97462.22;;;16.98
57468;BMP280;43311;51.196;7.518;2023-09-07T05:34:53;97465.53;;;17.02
57468;BMP280;43311;51.196;7.518;2023-09-07T05:37:18;97458.38;;;17.11
57468;BMP280;43311;51.196;7.518;2023-09-07T05:39:44;97462.50;;;17.25
57468;BMP280;43311;51.196;7.518;2023-09-07T05:42:10;97460.06;;;17.30
57468;BMP280;43311;51.196;7.518;2023-09-07T05:44:36;97461.50;;;17.56
57468;BMP280;43311;51.196;7.518;2023-09-07T05:47:02;97455.53;;;17.65
57468;BMP280;43311;51.196;7.518;2023-09-07T05:49:28;97465.56;;;17.91
57468;BMP280;43311;51.196;7.518;2023-09-07T05:51:53;97462.59;;;18.10
57468;BMP280;43311;51.196;7.518;2023-09-07T05:54:19;97473.09;;;18.14
57468;BMP280;43311;51.196;7.518;2023-09-07T05:56:44;97462.84;;;18.25
57468;BMP280;43311;51.196;7.518;2023-09-07T05:59:10;97467.13;;;18.52
57468;BMP280;43311;51.196;7.518;2023-09-07T06:01:35;97467.78;;;18.65
57468;BMP280;43311;51.196;7.518;2023-09-07T06:04:01;97460.00;;;18.80
57468;BMP280;43311;51.196;7.518;2023-09-07T06:06:27;97450.78;;;19.02
57468;BMP280;43311;51.196;7.518;2023-09-07T06:08:53;97472.75;;;19.60
57468;BMP280;43311;51.196;7.518;2023-09-07T06:11:18;97465.44;;;20.23
57468;BMP280;43311;51.196;7.518;2023-09-07T06:13:43;97454.63;;;20.67
57468;BMP280;43311;51.196;7.518;2023-09-07T06:16:09;97450.97;;;21.21
57468;BMP280;43311;51.196;7.518;2023-09-07T06:18:35;97453.63;;;21.67
57468;BMP280;43311;51.196;7.518;2023-09-07T06:21:00;97449.31;;;21.99
57468;BMP280;43311;51.196;7.518;2023-09-07T06:23:25;97445.38;;;22.37
57468;BMP280;43311;51.196;7.518;2023-09-07T06:25:52;97450.88;;;22.63
57468;BMP280;43311;51.196;7.518;2023-09-07T06:28:17;97450.72;;;23.40
57468;BMP280;43311;51.196;7.518;2023-09-07T06:30:43;97445.22;;;24.19
57468;BMP280;43311;51.196;7.518;2023-09-07T06:33:08;97448.75;;;24.62
57468;BMP280;43311;51.196;7.518;2023-09-07T06:35:34;97447.72;;;24.90
57468;BMP280;43311;51.196;7.518;2023-09-07T06:37:59;97438.69;;;25.40
57468;BMP280;43311;51.196;7.518;2023-09-07T06:40:25;97455.94;;;25.75
57468;BMP280;43311;51.196;7.518;2023-09-07T06:42:53;97438.72;;;25.46
57468;BMP280;43311;51.196;7.518;2023-09-07T06:45:20;97458.88;;;25.77
57468;BMP280;43311;51.196;7.518;2023-09-07T06:47:51;97454.47;;;25.74
57468;BMP280;43311;51.196;7.518;2023-09-07T06:50:20;97447.94;;;26.14
57468;BMP280;43311;51.196;7.518;2023-09-07T06:52:46;97458.91;;;26.10
57468;BMP280;43311;51.196;7.518;2023-09-07T06:55:11;97458.41;;;25.95
57468;BMP280;43311;51.196;7.518;2023-09-07T06:57:36;97460.50;;;25.58
57468;BMP280;43311;51.196;7.518;2023-09-07T07:00:03;97454.25;;;25.78
57468;BMP280;43311;51.196;7.518;2023-09-07T07:02:31;97464.81;;;26.14
57468;BMP280;43311;51.196;7.518;2023-09-07T07:04:56;97462.88;;;26.31
57468;BMP280;43311;51.196;7.518;2023-09-07T07:07:22;97468.69;;;25.91
57468;BMP280;43311;51.196;7.518;2023-09-07T07:09:47;97455.44;;;25.82
57468;BMP280;43311;51.196;7.518;2023-09-07T07:12:13;97468.81;;;25.55
57468;BMP280;43311;51.196;7.518;2023-09-07T07:14:39;97472.94;;;25.51
57468;BMP280;43311;51.196;7.518;2023-09-07T07:17:05;97468.47;;;25.37
57468;BMP280;43311;51.196;7.518;2023-09-07T07:19:31;97465.09;;;25.42
57468;BMP280;43311;51.196;7.518;2023-09-07T07:21:57;97468.94;;;25.30
57468;BMP280;43311;51.196;7.518;2023-09-07T07:24:23;97464.97;;;25.20
57468;BMP280;43311;51.196;7.518;2023-09-07T07:26:49;97470.63;;;24.85
57468;BMP280;43311;51.196;7.518;2023-09-07T07:29:15;97463.72;;;24.43
57468;BMP280;43311;51.196;7.518;2023-09-07T07:31:40;97474.28;;;24.26
57468;BMP280;43311;51.196;7.518;2023-09-07T07:34:06;97462.50;;;24.18
57468;BMP280;43311;51.196;7.518;2023-09-07T07:36:31;97473.34;;;24.04
57468;BMP280;43311;51.196;7.518;2023-09-07T07:38:57;97476.81;;;23.85
57468;BMP280;43311;51.196;7.518;2023-09-07T07:41:23;97481.75;;;23.92
57468;BMP280;43311;51.196;7.518;2023-09-07T07:43:49;97484.16;;;23.90
57468;BMP280;43311;51.196;7.518;2023-09-07T07:46:15;97467.78;;;23.82
57468;BMP280;43311;51.196;7.518;2023-09-07T07:48:41;97479.59;;;23.96
57468;BMP280;43311;51.196;7.518;2023-09-07T07:51:07;97478.34;;;24.16
57468;BMP280;43311;51.196;7.518;2023-09-07T07:53:34;97469.63;;;24.21
57468;BMP280;43311;51.196;7.518;2023-09-07T07:56:00;97471.56;;;23.96
57468;BMP280;43311;51.196;7.518;2023-09-07T07:58:26;97475.00;;;23.96
57468;BMP280;43311;51.196;7.518;2023-09-07T08:00:52;97461.31;;;24.19
57468;BMP280;43311;51.196;7.518;2023-09-07T08:03:23;97469.63;;;24.21
57468;BMP280;43311;51.196;7.518;2023-09-07T08:05:49;97474.31;;;24.32
57468;BMP280;43311;51.196;7.518;2023-09-07T08:08:15;97474.94;;;24.41
57468;BMP280;43311;51.196;7.518;2023-09-07T08:10:41;97473.00;;;24.42
57468;BMP280;43311;51.196;7.518;2023-09-07T08:13:08;97478.25;;;24.62
57468;BMP280;43311;51.196;7.518;2023-09-07T08:15:33;97472.41;;;24.63
57468;BMP280;43311;51.196;7.518;2023-09-07T08:18:00;97476.22;;;24.51
57468;BMP280;43311;51.196;7.518;2023-09-07T08:20:26;97470.56;;;24.75
57468;BMP280;43311;51.196;7.518;2023-09-07T08:22:52;97468.31;;;24.68
57468;BMP280;43311;51.196;7.518;2023-09-07T08:25:18;97480.00;;;24.65
57468;BMP280;43311;51.196;7.518;2023-09-07T08:27:47;97477.25;;;24.59
57468;BMP280;43311;51.196;7.518;2023-09-07T08:30:14;97466.19;;;24.77
57468;BMP280;43311;51.196;7.518;2023-09-07T08:32:44;97470.13;;;24.87
57468;BMP280;43311;51.196;7.518;2023-09-07T08:35:13;97470.69;;;24.96
57468;BMP280;43311;51.196;7.518;2023-09-07T08:37:40;97472.78;;;25.18
57468;BMP280;43311;51.196;7.518;2023-09-07T08:40:06;97454.94;;;25.15
57468;BMP280;43311;51.196;7.518;2023-09-07T08:42:38;97470.13;;;24.87
57468;BMP280;43311;51.196;7.518;2023-09-07T08:45:05;97462.91;;;24.98
57468;BMP280;43311;51.196;7.518;2023-09-07T08:47:37;97463.97;;;25.17
57468;BMP280;43311;51.196;7.518;2023-09-07T08:50:05;97462.81;;;25.29
57468;BMP280;43311;51.196;7.518;2023-09-07T08:52:34;97457.00;;;25.36
57468;BMP280;43311;51.196;7.518;2023-09-07T08:55:01;97460.66;;;25.39
57468;BMP280;43311;51.196;7.518;2023-09-07T08:57:30;97468.91;;;25.19
57468;BMP280;43311;51.196;7.518;2023-09-07T08:59:56;97463.84;;;25.37
57468;BMP280;43311;51.196;7.518;2023-09-07T09:02:22;97459.69;;;25.36
57468;BMP280;43311;51.196;7.518;2023-09-07T09:04:47;97466.31;;;25.41
57468;BMP280;43311;51.196;7.518;2023-09-07T09:07:14;97465.09;;;25.42
57468;BMP280;43311;51.196;7.518;2023-09-07T09:09:39;97469.00;;;25.41
57468;BMP280;43311;51.196;7.518;2023-09-07T09:12:12;97461.91;;;25.43
57468;BMP280;43311;51.196;7.518;2023-09-07T09:14:41;97457.31;;;25.54
57468;BMP280;43311;51.196;7.518;2023-09-07T09:17:14;97465.88;;;25.64
57468;BMP280;43311;51.196;7.518;2023-09-07T09:19:40;97469.13;;;25.73
57468;BMP280;43311;51.196;7.518;2023-09-07T09:22:07;97461.59;;;25.94
57468;BMP280;43311;51.196;7.518;2023-09-07T09:24:33;97464.78;;;26.03
57468;BMP280;43311;51.196;7.518;2023-09-07T09:27:02;97453.53;;;25.94
57468;BMP280;43311;51.196;7.518;2023-09-07T09:29:31;97468.97;;;26.26
57468;BMP280;43311;51.196;7.518;2023-09-07T09:32:00;97455.78;;;26.33
57468;BMP280;43311;51.196;7.518;2023-09-07T09:34:25;97454.03;;;26.03
57468;BMP280;43311;51.196;7.518;2023-09-07T09:36:51;97455.06;;;26.38
57468;BMP280;43311;51.196;7.518;2023-09-07T09:39:23;97459.22;;;26.61
57468;BMP280;43311;51.196;7.518;2023-09-07T09:41:49;97450.91;;;26.48
57468;BMP280;43311;51.196;7.518;2023-09-07T09:44:16;97447.22;;;26.68
57468;BMP280;43311;51.196;7.518;2023-09-07T09:46:42;97445.94;;;27.01
57468;BMP280;43311;51.196;7.518;2023-09-07T09:49:08;97440.06;;;27.14
57468;BMP280;43311;51.196;7.518;2023-09-07T09:51:36;97434.81;;;27.32
57468;BMP280;43311;51.196;7.518;2023-09-07T09:54:03;97434.34;;;27.28
57468;BMP280;43311;51.196;7.518;2023-09-07T09:56:28;97430.81;;;27.50
57468;BMP280;43311;51.196;7.518;2023-09-07T09:58:54;97424.72;;;27.44
57468;BMP280;43311;51.196;7.518;2023-09-07T10:01:19;97436.09;;;27.77
57468;BMP280;43311;51.196;7.518;2023-09-07T10:03:47;97426.00;;;27.83
57468;BMP280;43311;51.196;7.518;2023-09-07T10:06:24;97432.25;;;28.02
57468;BMP280;43311;51.196;7.518;2023-09-07T10:09:03;97430.72;;;28.12
57468;BMP280;43311;51.196;7.518;2023-09-07T10:11:38;97429.16;;;27.87
57468;BMP280;43311;51.196;7.518;2023-09-07T10:14:04;97427.09;;;28.04
57468;BMP280;43311;51.196;7.518;2023-09-07T10:16:47;97419.00;;;28.04
57468;BMP280;43311;51.196;7.518;2023-09-07T10:21:41;97403.25;;;28.08
57468;BMP280;43311;51.196;7.518;2023-09-07T10:24:06;97418.13;;;28.25
57468;BMP280;43311;51.196;7.518;2023-09-07T10:26:32;97419.09;;;27.87
57468;BMP280;43311;51.196;7.518;2023-09-07T10:29:01;97414.22;;;28.21
57468;BMP280;43311;51.196;7.518;2023-09-07T10:31:29;97396.13;;;27.81
57468;BMP280;43311;51.196;7.518;2023-09-07T10:33:55;97415.88;;;28.29
57468;BMP280;43311;51.196;7.518;2023-09-07T10:36:23;97413.88;;;28.35
57468;BMP280;43311;51.196;7.518;2023-09-07T10:38:49;97411.34;;;28.42
57468;BMP280;43311;51.196;7.518;2023-09-07T10:41:14;97413.28;;;28.71
57468;BMP280;43311;51.196;7.518;2023-09-07T10:43:53;97405.41;;;28.49
57468;BMP280;43311;51.196;7.518;2023-09-07T10:46:20;97412.63;;;28.89
57468;BMP280;43311;51.196;7.518;2023-09-07T10:48:51;97390.78;;;28.87
57468;BMP280;43311;51.196;7.518;2023-09-07T10:51:18;97401.72;;;29.00
57468;BMP280;43311;51.196;7.518;2023-09-07T10:53:43;97407.09;;;29.00
57468;BMP280;43311;51.196;7.518;2023-09-07T10:56:08;97387.53;;;28.94
57468;BMP280;43311;51.196;7.518;2023-09-07T10:58:35;97401.72;;;29.00
57468;BMP280;43311;51.196;7.518;2023-09-07T11:01:05;97375.91;;;28.81
57468;BMP280;43311;51.196;7.518;2023-09-07T11:03:30;97386.56;;;29.34
57468;BMP280;43311;51.196;7.518;2023-09-07T11:06:04;97391.53;;;29.30
57468;BMP280;43311;51.196;7.518;2023-09-07T11:08:32;97381.03;;;29.45
57468;BMP280;43311;51.196;7.518;2023-09-07T11:11:02;97379.25;;;29.66
57468;BMP280;43311;51.196;7.518;2023-09-07T11:13:28;97376.13;;;29.62
57468;BMP280;43311;51.196;7.518;2023-09-07T11:15:55;97375.84;;;29.47
57468;BMP280;43311;51.196;7.518;2023-09-07T11:18:22;97376.91;;;29.20
57468;BMP280;43311;51.196;7.518;2023-09-07T11:20:48;97375.94;;;29.17
57468;BMP280;43311;51.196;7.518;2023-09-07T11:23:14;97374.16;;;29.44
57468;BMP280;43311;51.196;7.518;2023-09-07T11:25:40;97375.88;;;29.60
57468;BMP280;43311;51.196;7.518;2023-09-07T11:28:06;97371.63;;;29.82
57468;BMP280;43311;51.196;7.518;2023-09-07T11:30:32;97384.94;;;29.99
57468;BMP280;43311;51.196;7.518;2023-09-07T11:33:06;97360.84;;;29.64
57468;BMP280;43311;51.196;7.518;2023-09-07T11:35:32;97372.72;;;29.74
57468;BMP280;43311;51.196;7.518;2023-09-07T11:38:02;97368.41;;;30.02
57468;BMP280;43311;51.196;7.518;2023-09-07T11:40:29;97374.09;;;29.99
57468;BMP280;43311;51.196;7.518;2023-09-07T11:43:04;97367.38;;;30.18
57468;BMP280;43311;51.196;7.518;2023-09-07T11:45:42;97366.59;;;30.36
57468;BMP280;43311;51.196;7.518;2023-09-07T11:48:10;97361.22;;;30.62
57468;BMP280;43311;51.196;7.518;2023-09-07T11:50:37;97363.00;;;30.47
57468;BMP280;43311;51.196;7.518;2023-09-07T11:53:04;97370.56;;;30.04
57468;BMP280;43311;51.196;7.518;2023-09-07T11:55:30;97363.50;;;30.45
57468;BMP280;43311;51.196;7.518;2023-09-07T11:57:55;97363.16;;;30.36
57468;BMP280;43311;51.196;7.518;2023-09-07T12:00:20;97362.94;;;30.34
57468;BMP280;43311;51.196;7.518;2023-09-07T12:02:48;97368.34;;;30.34
57468;BMP280;43311;51.196;7.518;2023-09-07T12:05:18;97366.84;;;30.51
57468;BMP280;43311;51.196;7.518;2023-09-07T12:07:49;97360.06;;;30.70
57468;BMP280;43311;51.196;7.518;2023-09-07T12:10:15;97362.63;;;30.37
57468;BMP280;43311;51.196;7.518;2023-09-07T12:12:40;97353.53;;;30.66
57468;BMP280;43311;51.196;7.518;2023-09-07T12:15:07;97353.09;;;30.62
57468;BMP280;43311;51.196;7.518;2023-09-07T12:17:33;97359.44;;;30.77
57468;BMP280;43311;51.196;7.518;2023-09-07T12:19:59;97356.22;;;30.92
57468;BMP280;43311;51.196;7.518;2023-09-07T12:22:25;97352.47;;;30.69
57468;BMP280;43311;51.196;7.518;2023-09-07T12:24:50;97343.19;;;30.77
57468;BMP280;43311;51.196;7.518;2023-09-07T12:27:16;97357.69;;;30.67
57468;BMP280;43311;51.196;7.518;2023-09-07T12:29:41;97358.84;;;30.14
57468;BMP280;43311;51.196;7.518;2023-09-07T12:32:07;97337.91;;;30.59
57468;BMP280;43311;51.196;7.518;2023-09-07T12:34:32;97339.47;;;30.80
57468;BMP280;43311;51.196;7.518;2023-09-07T12:37:03;97346.22;;;30.48
57468;BMP280;43311;51.196;7.518;2023-09-07T12:39:30;97347.47;;;30.73
57468;BMP280;43311;51.196;7.518;2023-09-07T12:41:55;97347.50;;;30.16
57468;BMP280;43311;51.196;7.518;2023-09-07T12:44:20;97339.56;;;30.75
57468;BMP280;43311;51.196;7.518;2023-09-07T12:46:46;97338.22;;;30.68
57468;BMP280;43311;51.196;7.518;2023-09-07T12:49:11;97342.47;;;30.51
57468;BMP280;43311;51.196;7.518;2023-09-07T12:51:37;97337.69;;;30.57
57468;BMP280;43311;51.196;7.518;2023-09-07T12:54:02;97320.19;;;30.45
57468;BMP280;43311;51.196;7.518;2023-09-07T12:56:28;97326.84;;;30.70
57468;BMP280;43311;51.196;7.518;2023-09-07T12:58:53;97323.81;;;30.86
57468;BMP280;43311;51.196;7.518;2023-09-07T13:01:19;97325.19;;;30.67
57468;BMP280;43311;51.196;7.518;2023-09-07T13:03:45;97313.75;;;30.61
57468;BMP280;43311;51.196;7.518;2023-09-07T13:06:10;97330.84;;;30.25
57468;BMP280;43311;51.196;7.518;2023-09-07T13:08:36;97323.22;;;29.97
57468;BMP280;43311;51.196;7.518;2023-09-07T13:11:01;97317.91;;;29.92
57468;BMP280;43311;51.196;7.518;2023-09-07T13:13:27;97320.88;;;29.88
57468;BMP280;43311;51.196;7.518;2023-09-07T13:15:57;97325.63;;;30.14
57468;BMP280;43311;51.196;7.518;2023-09-07T13:18:23;97322.63;;;29.86
57468;BMP280;43311;51.196;7.518;2023-09-07T13:20:48;97316.22;;;29.58
57468;BMP280;43311;51.196;7.518;2023-09-07T13:23:25;97310.84;;;29.71
57468;BMP280;43311;51.196;7.518;2023-09-07T13:25:51;97315.00;;;29.72
57468;BMP280;43311;51.196;7.518;2023-09-07T13:28:16;97305.44;;;29.71
57468;BMP280;43311;51.196;7.518;2023-09-07T13:30:42;97306.59;;;29.75
57468;BMP280;43311;51.196;7.518;2023-09-07T13:33:07;97312.47;;;29.92
57468;BMP280;43311;51.196;7.518;2023-09-07T13:35:33;97305.44;;;30.02
57468;BMP280;43311;51.196;7.518;2023-09-07T13:37:58;97293.16;;;29.70
57468;BMP280;43311;51.196;7.518;2023-09-07T13:40:24;97295.44;;;29.66
57468;BMP280;43311;51.196;7.518;2023-09-07T13:42:50;97289.00;;;29.69
57468;BMP280;43311;51.196;7.518;2023-09-07T13:45:15;97288.81;;;29.79
57468;BMP280;43311;51.196;7.518;2023-09-07T13:47:41;97290.47;;;29.70
57468;BMP280;43311;51.196;7.518;2023-09-07T13:50:06;97281.50;;;29.62
57468;BMP280;43311;51.196;7.518;2023-09-07T13:52:32;97286.53;;;29.83
57468;BMP280;43311;51.196;7.518;2023-09-07T13:54:57;97277.19;;;29.84
57468;BMP280;43311;51.196;7.518;2023-09-07T13:57:23;97281.56;;;29.87
57468;BMP280;43311;51.196;7.518;2023-09-07T13:59:48;97287.44;;;29.91
57468;BMP280;43311;51.196;7.518;2023-09-07T14:02:14;97284.06;;;29.85
57468;BMP280;43311;51.196;7.518;2023-09-07T14:04:39;97292.44;;;29.69
57468;BMP280;43311;51.196;7.518;2023-09-07T14:07:05;97273.66;;;29.45